sensor_id;sensor_type;location;lat;lon;timestamp;temperature;humidity
26803;DHT22;14378;51.796;5.808;2024-03-23T00:55:52;8.60;99.90
26803;DHT22;14378;51.796;5.808;2024-03-23T00:57:53;8.70;99.90
26803;DHT22;14378;51.796;5.808;2024-03-23T00:59:54;8.70;99.90
26803;DHT22;14378;51.796;5.808;2024-03-23T01:01:55;8.70;99.90
26803;DHT22;14378;51.796;5.808;2024-03-23T01:03:56;8.70;99.90
26803;DHT22;14378;51.796;5.808;2024-03-23T01:06:01;8.60;99.90
26803;DHT22;14378;51.796;5.808;2024-03-23T01:08:02;8.60;99.90
26803;DHT22;14378;51.796;5.808;2024-03-23T01:10:03;8.60;99.90
26803;DHT22;14378;51.796;5.808;2024-03-23T01:12:05;8.60;99.90
26803;DHT22;14378;51.796;5.808;2024-03-23T01:14:06;8.60;99.90
26803;DHT22;14378;51.796;5.808;2024-03-23T01:16:07;8.60;99.90
26803;DHT22;14378;51.796;5.808;2024-03-23T01:18:14;8.60;99.90
26803;DHT22;14378;51.796;5.808;2024-03-23T01:20:20;8.60;99.90
26803;DHT22;14378;51.796;5.808;2024-03-23T01:22:21;8.60;99.90
26803;DHT22;14378;51.796;5.808;2024-03-23T01:24:22;8.60;99.90
26803;DHT22;14378;51.796;5.808;2024-03-23T01:26:23;8.50;99.90
26803;DHT22;14378;51.796;5.808;2024-03-23T01:28:26;8.50;99.90
26803;DHT22;14378;51.796;5.808;2024-03-23T01:30:37;8.50;99.90
26803;DHT22;14378;51.796;5.808;2024-03-23T01:32:38;8.50;99.90
26803;DHT22;14378;51.796;5.808;2024-03-23T01:34:39;8.50;99.90
26803;DHT22;14378;51.796;5.808;2024-03-23T01:36:40;8.50;99.90
26803;DHT22;14378;51.796;5.808;2024-03-23T01:38:41;8.50;99.90
26803;DHT22;14378;51.796;5.808;2024-03-23T01:40:49;8.50;99.90
26803;DHT22;14378;51.796;5.808;2024-03-23T01:42:57;8.40;99.90
26803;DHT22;14378;51.796;5.808;2024-03-23T01:44:57;8.30;99.90
26803;DHT22;14378;51.796;5.808;2024-03-23T01:47:06;8.30;99.90
26803;DHT22;14378;51.796;5.808;2024-03-23T01:49:08;8.30;99.90
26803;DHT22;14378;51.796;5.808;2024-03-23T01:51:10;8.30;99.90
26803;DHT22;14378;51.796;5.808;2024-03-23T01:53:11;8.30;99.90
26803;DHT22;14378;51.796;5.808;2024-03-23T01:55:14;8.30;99.90
26803;DHT22;14378;51.796;5.808;2024-03-23T01:57:15;8.30;99.90
26803;DHT22;14378;51.796;5.808;2024-03-23T01:59:16;8.30;99.90
26803;DHT22;14378;51.796;5.808;2024-03-23T02:01:23;8.30;99.90
26803;DHT22;14378;51.796;5.808;2024-03-23T02:03:27;8.30;99.90
26803;DHT22;14378;51.796;5.808;2024-03-23T02:05:30;8.30;99.90
26803;DHT22;14378;51.796;5.808;2024-03-23T02:07:33;8.30;99.90
26803;DHT22;14378;51.796;5.808;2024-03-23T02:09:35;8.20;99.90
26803;DHT22;14378;51.796;5.808;2024-03-23T02:11:36;8.20;99.90
26803;DHT22;14378;51.796;5.808;2024-03-23T02:13:37;8.10;99.90
26803;DHT22;14378;51.796;5.808;2024-03-23T02:15:39;8.00;99.90
26803;DHT22;14378;51.796;5.808;2024-03-23T02:17:40;8.00;99.90
26803;DHT22;14378;51.796;5.808;2024-03-23T02:19:40;8.00;99.90
26803;DHT22;14378;51.796;5.808;2024-03-23T02:21:41;7.90;99.90
26803;DHT22;14378;51.796;5.808;2024-03-23T02:23:42;7.90;99.90
26803;DHT22;14378;51.796;5.808;2024-03-23T02:25:43;7.90;99.90
26803;DHT22;14378;51.796;5.808;2024-03-23T02:27:44;7.90;99.90
26803;DHT22;14378;51.796;5.808;2024-03-23T02:29:45;7.80;99.90
26803;DHT22;14378;51.796;5.808;2024-03-23T02:31:46;7.80;99.90
26803;DHT22;14378;51.796;5.808;2024-03-23T02:33:47;7.80;99.90
26803;DHT22;14378;51.796;5.808;2024-03-23T02:35:49;7.80;99.90
26803;DHT22;14378;51.796;5.808;2024-03-23T02:37:50;7.80;99.90
26803;DHT22;14378;51.796;5.808;2024-03-23T02:39:51;7.80;99.90
26803;DHT22;14378;51.796;5.808;2024-03-23T02:41:52;7.80;99.90
26803;DHT22;14378;51.796;5.808;2024-03-23T02:43:53;7.80;99.90
26803;DHT22;14378;51.796;5.808;2024-03-23T02:45:54;7.80;99.90
26803;DHT22;14378;51.796;5.808;2024-03-23T02:47:54;7.80;99.90
26803;DHT22;14378;51.796;5.808;2024-03-23T02:50:01;7.70;99.90
26803;DHT22;14378;51.796;5.808;2024-03-23T02:52:02;7.80;99.90
26803;DHT22;14378;51.796;5.808;2024-03-23T02:54:03;7.80;99.90
26803;DHT22;14378;51.796;5.808;2024-03-23T02:56:10;7.80;99.90
26803;DHT22;14378;51.796;5.808;2024-03-23T02:58:16;7.80;99.90
26803;DHT22;14378;51.796;5.808;2024-03-23T03:00:17;7.80;99.90
26803;DHT22;14378;51.796;5.808;2024-03-23T03:02:18;7.80;99.90
26803;DHT22;14378;51.796;5.808;2024-03-23T03:04:19;7.80;99.90
26803;DHT22;14378;51.796;5.808;2024-03-23T03:06:26;7.80;99.90
26803;DHT22;14378;51.796;5.808;2024-03-23T03:08:27;7.80;99.90
26803;DHT22;14378;51.796;5.808;2024-03-23T03:10:28;7.70;99.90
26803;DHT22;14378;51.796;5.808;2024-03-23T03:12:29;7.70;99.90
26803;DHT22;14378;51.796;5.808;2024-03-23T03:14:30;7.70;99.90
26803;DHT22;14378;51.796;5.808;2024-03-23T03:16:31;7.70;99.90
26803;DHT22;14378;51.796;5.808;2024-03-23T03:18:32;7.70;99.90
26803;DHT22;14378;51.796;5.808;2024-03-23T03:20:33;7.70;99.90
26803;DHT22;14378;51.796;5.808;2024-03-23T03:22:35;7.80;99.90
26803;DHT22;14378;51.796;5.808;2024-03-23T03:24:36;7.70;99.90
26803;DHT22;14378;51.796;5.808;2024-03-23T03:26:37;7.70;99.90
26803;DHT22;14378;51.796;5.808;2024-03-23T03:28:38;7.70;99.90
26803;DHT22;14378;51.796;5.808;2024-03-23T03:30:38;7.70;99.90
26803;DHT22;14378;51.796;5.808;2024-03-23T03:32:39;7.70;99.90
26803;DHT22;14378;51.796;5.808;2024-03-23T03:34:40;7.70;99.90
26803;DHT22;14378;51.796;5.808;2024-03-23T03:36:41;7.70;99.90
26803;DHT22;14378;51.796;5.808;2024-03-23T03:38:48;7.70;99.90
26803;DHT22;14378;51.796;5.808;2024-03-23T03:40:49;7.80;99.90
26803;DHT22;14378;51.796;5.808;2024-03-23T03:42:49;7.80;99.90
26803;DHT22;14378;51.796;5.808;2024-03-23T03:44:50;7.80;99.90
26803;DHT22;14378;51.796;5.808;2024-03-23T03:46:52;7.80;99.90
26803;DHT22;14378;51.796;5.808;2024-03-23T03:48:54;7.90;99.90
26803;DHT22;14378;51.796;5.808;2024-03-23T03:50:55;7.90;99.90
26803;DHT22;14378;51.796;5.808;2024-03-23T03:52:56;7.80;99.90
26803;DHT22;14378;51.796;5.808;2024-03-23T03:55:02;7.80;99.90
26803;DHT22;14378;51.796;5.808;2024-03-23T03:57:03;7.80;99.90
26803;DHT22;14378;51.796;5.808;2024-03-23T03:59:10;7.80;99.90
26803;DHT22;14378;51.796;5.808;2024-03-23T04:01:11;7.80;99.90
26803;DHT22;14378;51.796;5.808;2024-03-23T04:03:17;7.70;99.90
26803;DHT22;14378;51.796;5.808;2024-03-23T04:05:18;7.70;99.90
26803;DHT22;14378;51.796;5.808;2024-03-23T04:07:20;7.70;99.90
26803;DHT22;14378;51.796;5.808;2024-03-23T04:09:23;7.70;99.90
26803;DHT22;14378;51.796;5.808;2024-03-23T04:11:24;7.70;99.90
26803;DHT22;14378;51.796;5.808;2024-03-23T04:13:25;7.80;99.90
26803;DHT22;14378;51.796;5.808;2024-03-23T04:15:32;7.80;99.90
26803;DHT22;14378;51.796;5.808;2024-03-23T04:17:32;7.80;99.90
26803;DHT22;14378;51.796;5.808;2024-03-23T04:19:34;7.80;99.90
26803;DHT22;14378;51.796;5.808;2024-03-23T04:21:37;7.70;99.90
26803;DHT22;14378;51.796;5.808;2024-03-23T04:23:38;7.70;99.90
26803;DHT22;14378;51.796;5.808;2024-03-23T04:25:39;7.70;99.90
26803;DHT22;14378;51.796;5.808;2024-03-23T04:27:40;7.70;99.90
26803;DHT22;14378;51.796;5.808;2024-03-23T04:29:42;7.70;99.90
26803;DHT22;14378;51.796;5.808;2024-03-23T04:31:46;7.60;99.90
26803;DHT22;14378;51.796;5.808;2024-03-23T04:33:47;7.60;99.90
26803;DHT22;14378;51.796;5.808;2024-03-23T04:35:49;7.60;99.90
26803;DHT22;14378;51.796;5.808;2024-03-23T04:37:51;7.50;99.90
26803;DHT22;14378;51.796;5.808;2024-03-23T04:39:56;7.40;99.90
26803;DHT22;14378;51.796;5.808;2024-03-23T04:41:57;7.40;99.90
26803;DHT22;14378;51.796;5.808;2024-03-23T04:43:58;7.30;99.90
26803;DHT22;14378;51.796;5.808;2024-03-23T04:45:59;7.30;99.90
26803;DHT22;14378;51.796;5.808;2024-03-23T04:47:59;7.30;99.90
26803;DHT22;14378;51.796;5.808;2024-03-23T04:50:00;7.20;99.90
26803;DHT22;14378;51.796;5.808;2024-03-23T04:52:03;7.20;99.90
26803;DHT22;14378;51.796;5.808;2024-03-23T04:54:05;7.10;99.90
26803;DHT22;14378;51.796;5.808;2024-03-23T04:56:07;7.10;99.90
26803;DHT22;14378;51.796;5.808;2024-03-23T04:58:08;7.00;99.90
26803;DHT22;14378;51.796;5.808;2024-03-23T05:00:10;7.00;99.90
26803;DHT22;14378;51.796;5.808;2024-03-23T05:02:17;7.00;99.90
26803;DHT22;14378;51.796;5.808;2024-03-23T05:04:18;6.90;99.90
26803;DHT22;14378;51.796;5.808;2024-03-23T05:06:19;6.90;99.90
26803;DHT22;14378;51.796;5.808;2024-03-23T05:08:26;6.80;99.90
26803;DHT22;14378;51.796;5.808;2024-03-23T05:10:31;6.80;99.90
26803;DHT22;14378;51.796;5.808;2024-03-23T05:12:33;6.70;99.90
26803;DHT22;14378;51.796;5.808;2024-03-23T05:14:41;6.70;99.90
26803;DHT22;14378;51.796;5.808;2024-03-23T05:16:42;6.70;99.90
26803;DHT22;14378;51.796;5.808;2024-03-23T05:18:43;6.70;99.90
26803;DHT22;14378;51.796;5.808;2024-03-23T05:20:43;6.60;99.90
26803;DHT22;14378;51.796;5.808;2024-03-23T05:22:45;6.60;99.90
26803;DHT22;14378;51.796;5.808;2024-03-23T05:24:47;6.60;99.90
26803;DHT22;14378;51.796;5.808;2024-03-23T05:26:48;6.60;99.90
26803;DHT22;14378;51.796;5.808;2024-03-23T05:28:49;6.50;99.90
26803;DHT22;14378;51.796;5.808;2024-03-23T05:30:52;6.50;99.90
26803;DHT22;14378;51.796;5.808;2024-03-23T05:32:53;6.50;99.90
26803;DHT22;14378;51.796;5.808;2024-03-23T05:34:54;6.40;99.90
26803;DHT22;14378;51.796;5.808;2024-03-23T05:36:57;6.50;99.90
26803;DHT22;14378;51.796;5.808;2024-03-23T05:38:58;6.40;99.90
26803;DHT22;14378;51.796;5.808;2024-03-23T05:40:59;6.40;99.90
26803;DHT22;14378;51.796;5.808;2024-03-23T05:43:01;6.40;99.90
26803;DHT22;14378;51.796;5.808;2024-03-23T05:45:02;6.30;99.90
26803;DHT22;14378;51.796;5.808;2024-03-23T05:47:12;6.30;99.90
26803;DHT22;14378;51.796;5.808;2024-03-23T05:49:16;6.30;99.90
26803;DHT22;14378;51.796;5.808;2024-03-23T05:51:20;6.30;99.90
26803;DHT22;14378;51.796;5.808;2024-03-23T05:53:21;6.30;99.90
26803;DHT22;14378;51.796;5.808;2024-03-23T05:55:22;6.30;99.90
26803;DHT22;14378;51.796;5.808;2024-03-23T05:57:23;6.30;99.90
26803;DHT22;14378;51.796;5.808;2024-03-23T05:59:24;6.30;99.90
26803;DHT22;14378;51.796;5.808;2024-03-23T06:01:25;6.30;99.90
26803;DHT22;14378;51.796;5.808;2024-03-23T06:03:29;6.30;99.90
26803;DHT22;14378;51.796;5.808;2024-03-23T06:05:30;6.40;99.90
26803;DHT22;14378;51.796;5.808;2024-03-23T06:07:31;6.40;99.90
26803;DHT22;14378;51.796;5.808;2024-03-23T06:09:32;6.40;99.90
26803;DHT22;14378;51.796;5.808;2024-03-23T06:11:33;6.40;99.90
26803;DHT22;14378;51.796;5.808;2024-03-23T06:13:34;6.40;99.90
26803;DHT22;14378;51.796;5.808;2024-03-23T06:15:35;6.40;99.90
26803;DHT22;14378;51.796;5.808;2024-03-23T06:17:38;6.40;99.90
26803;DHT22;14378;51.796;5.808;2024-03-23T06:19:39;6.40;99.90
26803;DHT22;14378;51.796;5.808;2024-03-23T06:21:44;6.40;99.90
26803;DHT22;14378;51.796;5.808;2024-03-23T06:23:45;6.30;99.90
26803;DHT22;14378;51.796;5.808;2024-03-23T06:25:51;6.30;99.90
26803;DHT22;14378;51.796;5.808;2024-03-23T06:27:52;6.30;99.90
26803;DHT22;14378;51.796;5.808;2024-03-23T06:29:53;6.30;99.90
26803;DHT22;14378;51.796;5.808;2024-03-23T06:31:54;6.30;99.90
26803;DHT22;14378;51.796;5.808;2024-03-23T06:33:55;6.30;99.90
26803;DHT22;14378;51.796;5.808;2024-03-23T06:35:56;6.30;99.90
26803;DHT22;14378;51.796;5.808;2024-03-23T06:37:58;6.30;99.90
26803;DHT22;14378;51.796;5.808;2024-03-23T06:39:59;6.40;99.90
26803;DHT22;14378;51.796;5.808;2024-03-23T06:41:59;6.40;99.90
26803;DHT22;14378;51.796;5.808;2024-03-23T06:44:00;6.40;99.90
26803;DHT22;14378;51.796;5.808;2024-03-23T06:46:03;6.40;99.90
26803;DHT22;14378;51.796;5.808;2024-03-23T06:48:05;6.40;99.90
26803;DHT22;14378;51.796;5.808;2024-03-23T06:50:08;6.50;99.90
26803;DHT22;14378;51.796;5.808;2024-03-23T06:52:10;6.60;99.90
26803;DHT22;14378;51.796;5.808;2024-03-23T06:54:11;6.60;99.90
26803;DHT22;14378;51.796;5.808;2024-03-23T06:56:12;6.70;99.90
26803;DHT22;14378;51.796;5.808;2024-03-23T06:58:13;6.70;99.90
26803;DHT22;14378;51.796;5.808;2024-03-23T07:00:15;6.80;99.90
26803;DHT22;14378;51.796;5.808;2024-03-23T07:02:17;6.80;99.90
26803;DHT22;14378;51.796;5.808;2024-03-23T07:04:18;6.90;99.90
26803;DHT22;14378;51.796;5.808;2024-03-23T07:06:19;7.00;99.90
26803;DHT22;14378;51.796;5.808;2024-03-23T07:08:20;6.90;99.90
26803;DHT22;14378;51.796;5.808;2024-03-23T07:10:24;7.00;99.90
26803;DHT22;14378;51.796;5.808;2024-03-23T07:12:25;7.00;99.90
26803;DHT22;14378;51.796;5.808;2024-03-23T07:14:26;7.00;99.90
26803;DHT22;14378;51.796;5.808;2024-03-23T07:16:27;7.10;99.90
26803;DHT22;14378;51.796;5.808;2024-03-23T07:18:28;7.10;99.90
26803;DHT22;14378;51.796;5.808;2024-03-23T07:20:29;7.10;99.90
26803;DHT22;14378;51.796;5.808;2024-03-23T07:22:31;7.20;99.90
26803;DHT22;14378;51.796;5.808;2024-03-23T07:24:32;7.10;99.90
26803;DHT22;14378;51.796;5.808;2024-03-23T07:26:36;7.20;99.90
26803;DHT22;14378;51.796;5.808;2024-03-23T07:28:38;7.20;99.90
26803;DHT22;14378;51.796;5.808;2024-03-23T07:30:43;7.30;99.90
26803;DHT22;14378;51.796;5.808;2024-03-23T07:32:47;7.30;99.90
26803;DHT22;14378;51.796;5.808;2024-03-23T07:34:50;7.30;99.90
26803;DHT22;14378;51.796;5.808;2024-03-23T07:36:51;7.30;99.90
26803;DHT22;14378;51.796;5.808;2024-03-23T07:38:52;7.40;99.90
26803;DHT22;14378;51.796;5.808;2024-03-23T07:43:07;7.50;99.90
26803;DHT22;14378;51.796;5.808;2024-03-23T07:45:08;7.50;99.90
26803;DHT22;14378;51.796;5.808;2024-03-23T07:47:10;7.60;99.90
26803;DHT22;14378;51.796;5.808;2024-03-23T07:49:14;7.70;99.90
26803;DHT22;14378;51.796;5.808;2024-03-23T07:51:20;7.80;99.90
26803;DHT22;14378;51.796;5.808;2024-03-23T07:53:21;7.80;99.90
26803;DHT22;14378;51.796;5.808;2024-03-23T07:55:22;7.80;99.90
26803;DHT22;14378;51.796;5.808;2024-03-23T07:57:23;7.90;99.90
26803;DHT22;14378;51.796;5.808;2024-03-23T07:59:30;7.90;99.90
26803;DHT22;14378;51.796;5.808;2024-03-23T08:01:32;7.90;99.90
26803;DHT22;14378;51.796;5.808;2024-03-23T08:03:36;8.00;99.90
26803;DHT22;14378;51.796;5.808;2024-03-23T08:05:37;8.10;99.90
26803;DHT22;14378;51.796;5.808;2024-03-23T08:07:38;8.10;99.90
26803;DHT22;14378;51.796;5.808;2024-03-23T08:09:39;8.20;99.90
26803;DHT22;14378;51.796;5.808;2024-03-23T08:11:39;8.30;99.90
26803;DHT22;14378;51.796;5.808;2024-03-23T08:13:41;8.30;99.90
26803;DHT22;14378;51.796;5.808;2024-03-23T08:15:42;8.40;99.90
26803;DHT22;14378;51.796;5.808;2024-03-23T08:17:43;8.50;99.90
26803;DHT22;14378;51.796;5.808;2024-03-23T08:19:44;8.50;99.90
26803;DHT22;14378;51.796;5.808;2024-03-23T08:21:45;8.50;99.90
26803;DHT22;14378;51.796;5.808;2024-03-23T08:23:45;8.60;99.90
26803;DHT22;14378;51.796;5.808;2024-03-23T08:25:46;8.60;99.90
26803;DHT22;14378;51.796;5.808;2024-03-23T08:27:47;8.70;99.90
26803;DHT22;14378;51.796;5.808;2024-03-23T08:29:48;8.70;99.90
26803;DHT22;14378;51.796;5.808;2024-03-23T08:31:49;8.80;99.90
26803;DHT22;14378;51.796;5.808;2024-03-23T08:33:50;8.90;99.90
26803;DHT22;14378;51.796;5.808;2024-03-23T08:35:58;8.90;99.90
26803;DHT22;14378;51.796;5.808;2024-03-23T08:37:59;9.00;99.90
26803;DHT22;14378;51.796;5.808;2024-03-23T08:40:00;9.00;99.90
26803;DHT22;14378;51.796;5.808;2024-03-23T08:42:01;9.00;99.90
26803;DHT22;14378;51.796;5.808;2024-03-23T08:44:02;9.10;99.90
26803;DHT22;14378;51.796;5.808;2024-03-23T08:46:10;9.10;99.90
26803;DHT22;14378;51.796;5.808;2024-03-23T08:48:11;9.30;99.90
26803;DHT22;14378;51.796;5.808;2024-03-23T08:50:12;9.30;99.90
26803;DHT22;14378;51.796;5.808;2024-03-23T08:52:13;9.40;99.90
26803;DHT22;14378;51.796;5.808;2024-03-23T08:54:14;9.40;99.90
26803;DHT22;14378;51.796;5.808;2024-03-23T08:56:15;9.50;99.90
26803;DHT22;14378;51.796;5.808;2024-03-23T08:58:20;9.50;99.90
26803;DHT22;14378;51.796;5.808;2024-03-23T09:00:22;9.50;99.90
26803;DHT22;14378;51.796;5.808;2024-03-23T09:02:22;9.60;99.90
26803;DHT22;14378;51.796;5.808;2024-03-23T09:04:23;9.60;99.90
26803;DHT22;14378;51.796;5.808;2024-03-23T09:06:24;9.70;99.90
26803;DHT22;14378;51.796;5.808;2024-03-23T09:08:25;9.80;99.90
26803;DHT22;14378;51.796;5.808;2024-03-23T09:10:26;9.90;99.90
26803;DHT22;14378;51.796;5.808;2024-03-23T09:12:27;10.10;99.90
26803;DHT22;14378;51.796;5.808;2024-03-23T09:14:28;10.10;99.90
26803;DHT22;14378;51.796;5.808;2024-03-23T09:16:30;10.10;99.90
26803;DHT22;14378;51.796;5.808;2024-03-23T09:18:33;10.10;99.90
26803;DHT22;14378;51.796;5.808;2024-03-23T09:20:34;10.20;99.90
26803;DHT22;14378;51.796;5.808;2024-03-23T09:22:35;10.20;99.90
26803;DHT22;14378;51.796;5.808;2024-03-23T09:24:36;10.20;99.90
26803;DHT22;14378;51.796;5.808;2024-03-23T09:26:37;10.10;99.90
26803;DHT22;14378;51.796;5.808;2024-03-23T09:28:38;9.90;99.90
26803;DHT22;14378;51.796;5.808;2024-03-23T09:30:39;9.70;99.90
26803;DHT22;14378;51.796;5.808;2024-03-23T09:32:46;9.70;99.90
26803;DHT22;14378;51.796;5.808;2024-03-23T09:34:47;9.60;99.90
26803;DHT22;14378;51.796;5.808;2024-03-23T09:36:51;9.50;99.90
26803;DHT22;14378;51.796;5.808;2024-03-23T09:38:52;9.50;99.90
26803;DHT22;14378;51.796;5.808;2024-03-23T09:40:53;9.60;99.90
26803;DHT22;14378;51.796;5.808;2024-03-23T09:42:55;9.60;99.90
26803;DHT22;14378;51.796;5.808;2024-03-23T09:44:57;9.70;99.90
26803;DHT22;14378;51.796;5.808;2024-03-23T09:46:59;9.80;99.90
26803;DHT22;14378;51.796;5.808;2024-03-23T09:49:01;9.90;99.90
26803;DHT22;14378;51.796;5.808;2024-03-23T09:51:04;10.00;99.90
26803;DHT22;14378;51.796;5.808;2024-03-23T09:53:10;9.90;99.90
26803;DHT22;14378;51.796;5.808;2024-03-23T09:55:12;9.80;99.90
26803;DHT22;14378;51.796;5.808;2024-03-23T09:57:13;9.70;99.90
26803;DHT22;14378;51.796;5.808;2024-03-23T09:59:13;9.80;99.90
26803;DHT22;14378;51.796;5.808;2024-03-23T10:01:15;9.80;99.90
26803;DHT22;14378;51.796;5.808;2024-03-23T10:03:16;9.80;99.90
26803;DHT22;14378;51.796;5.808;2024-03-23T10:05:23;9.80;99.90
26803;DHT22;14378;51.796;5.808;2024-03-23T10:07:25;9.60;99.90
26803;DHT22;14378;51.796;5.808;2024-03-23T10:09:29;9.80;99.90
26803;DHT22;14378;51.796;5.808;2024-03-23T10:11:29;10.10;99.90
26803;DHT22;14378;51.796;5.808;2024-03-23T10:13:31;10.40;99.90
26803;DHT22;14378;51.796;5.808;2024-03-23T10:15:35;10.70;99.90
26803;DHT22;14378;51.796;5.808;2024-03-23T10:17:36;10.90;99.90
26803;DHT22;14378;51.796;5.808;2024-03-23T10:19:38;11.00;99.90
26803;DHT22;14378;51.796;5.808;2024-03-23T10:21:39;11.00;99.90
26803;DHT22;14378;51.796;5.808;2024-03-23T10:23:42;11.10;99.90
26803;DHT22;14378;51.796;5.808;2024-03-23T10:25:44;11.00;99.90
26803;DHT22;14378;51.796;5.808;2024-03-23T10:27:58;11.00;99.90
26803;DHT22;14378;51.796;5.808;2024-03-23T10:30:08;11.20;99.90
26803;DHT22;14378;51.796;5.808;2024-03-23T10:32:10;11.40;99.90
26803;DHT22;14378;51.796;5.808;2024-03-23T10:34:25;11.50;99.90
26803;DHT22;14378;51.796;5.808;2024-03-23T10:36:26;11.40;99.90
26803;DHT22;14378;51.796;5.808;2024-03-23T10:38:29;11.20;99.90
26803;DHT22;14378;51.796;5.808;2024-03-23T10:40:36;11.30;99.90
26803;DHT22;14378;51.796;5.808;2024-03-23T10:42:38;11.50;99.90
26803;DHT22;14378;51.796;5.808;2024-03-23T10:44:39;11.60;99.90
26803;DHT22;14378;51.796;5.808;2024-03-23T10:46:40;11.80;99.90
26803;DHT22;14378;51.796;5.808;2024-03-23T10:48:46;11.90;99.90
26803;DHT22;14378;51.796;5.808;2024-03-23T10:50:47;12.00;99.90
26803;DHT22;14378;51.796;5.808;2024-03-23T10:52:49;11.90;99.90
26803;DHT22;14378;51.796;5.808;2024-03-23T10:54:51;12.00;99.90
26803;DHT22;14378;51.796;5.808;2024-03-23T10:57:06;11.90;99.90
26803;DHT22;14378;51.796;5.808;2024-03-23T10:59:09;11.60;99.90
26803;DHT22;14378;51.796;5.808;2024-03-23T11:01:13;11.40;99.90
26803;DHT22;14378;51.796;5.808;2024-03-23T11:03:36;11.40;99.90
26803;DHT22;14378;51.796;5.808;2024-03-23T11:05:37;11.30;99.90
26803;DHT22;14378;51.796;5.808;2024-03-23T11:07:38;11.30;99.90
26803;DHT22;14378;51.796;5.808;2024-03-23T11:09:40;11.40;99.90
26803;DHT22;14378;51.796;5.808;2024-03-23T11:11:44;11.60;99.90
26803;DHT22;14378;51.796;5.808;2024-03-23T11:13:48;11.70;99.90
26803;DHT22;14378;51.796;5.808;2024-03-23T11:15:49;11.80;99.90
26803;DHT22;14378;51.796;5.808;2024-03-23T11:20:07;12.20;99.90
26803;DHT22;14378;51.796;5.808;2024-03-23T11:22:10;12.20;99.90
26803;DHT22;14378;51.796;5.808;2024-03-23T11:24:14;12.30;99.90
26803;DHT22;14378;51.796;5.808;2024-03-23T11:26:17;12.40;99.90
26803;DHT22;14378;51.796;5.808;2024-03-23T11:28:18;12.30;99.90
26803;DHT22;14378;51.796;5.808;2024-03-23T11:30:28;12.40;99.90
26803;DHT22;14378;51.796;5.808;2024-03-23T11:32:31;12.70;99.90
26803;DHT22;14378;51.796;5.808;2024-03-23T11:34:34;13.00;99.90
26803;DHT22;14378;51.796;5.808;2024-03-23T11:36:37;13.30;99.90
26803;DHT22;14378;51.796;5.808;2024-03-23T11:38:40;13.30;99.90
26803;DHT22;14378;51.796;5.808;2024-03-23T11:40:43;13.20;99.90
26803;DHT22;14378;51.796;5.808;2024-03-23T11:42:44;12.80;99.90
26803;DHT22;14378;51.796;5.808;2024-03-23T11:44:44;12.60;99.90
26803;DHT22;14378;51.796;5.808;2024-03-23T11:46:47;12.60;99.90
26803;DHT22;14378;51.796;5.808;2024-03-23T11:48:50;12.60;99.90
26803;DHT22;14378;51.796;5.808;2024-03-23T11:50:57;12.60;99.90
26803;DHT22;14378;51.796;5.808;2024-03-23T11:55:12;12.40;99.90
26803;DHT22;14378;51.796;5.808;2024-03-23T11:57:13;12.20;99.90
26803;DHT22;14378;51.796;5.808;2024-03-23T11:59:36;12.00;99.90
26803;DHT22;14378;51.796;5.808;2024-03-23T12:01:38;11.50;99.90
26803;DHT22;14378;51.796;5.808;2024-03-23T12:03:38;11.10;99.90
26803;DHT22;14378;51.796;5.808;2024-03-23T12:05:39;10.70;99.90
26803;DHT22;14378;51.796;5.808;2024-03-23T12:07:40;10.50;99.90
26803;DHT22;14378;51.796;5.808;2024-03-23T12:09:42;10.30;99.90
26803;DHT22;14378;51.796;5.808;2024-03-23T12:11:50;10.20;99.90
26803;DHT22;14378;51.796;5.808;2024-03-23T12:13:52;10.00;99.90
26803;DHT22;14378;51.796;5.808;2024-03-23T12:15:53;10.00;99.90
26803;DHT22;14378;51.796;5.808;2024-03-23T12:18:09;10.00;99.90
26803;DHT22;14378;51.796;5.808;2024-03-23T12:20:15;10.20;99.90
26803;DHT22;14378;51.796;5.808;2024-03-23T12:22:20;10.50;99.90
26803;DHT22;14378;51.796;5.808;2024-03-23T12:24:21;10.90;99.90
26803;DHT22;14378;51.796;5.808;2024-03-23T12:26:22;11.20;99.90
26803;DHT22;14378;51.796;5.808;2024-03-23T12:28:24;11.50;99.90
26803;DHT22;14378;51.796;5.808;2024-03-23T12:30:24;11.30;99.90
26803;DHT22;14378;51.796;5.808;2024-03-23T12:32:28;11.20;99.90
26803;DHT22;14378;51.796;5.808;2024-03-23T12:34:29;11.40;99.90
26803;DHT22;14378;51.796;5.808;2024-03-23T12:36:33;11.80;99.90
26803;DHT22;14378;51.796;5.808;2024-03-23T12:38:34;12.10;99.90
26803;DHT22;14378;51.796;5.808;2024-03-23T12:40:35;12.40;99.90
26803;DHT22;14378;51.796;5.808;2024-03-23T12:42:36;12.40;99.90
26803;DHT22;14378;51.796;5.808;2024-03-23T12:44:36;12.60;99.90
26803;DHT22;14378;51.796;5.808;2024-03-23T12:46:42;12.70;99.90
26803;DHT22;14378;51.796;5.808;2024-03-23T12:48:44;12.90;99.90
26803;DHT22;14378;51.796;5.808;2024-03-23T12:50:45;13.20;99.90
26803;DHT22;14378;51.796;5.808;2024-03-23T12:52:47;13.30;99.90
26803;DHT22;14378;51.796;5.808;2024-03-23T12:54:48;13.30;99.90
26803;DHT22;14378;51.796;5.808;2024-03-23T12:56:49;13.00;99.90
26803;DHT22;14378;51.796;5.808;2024-03-23T12:58:50;12.80;99.90
26803;DHT22;14378;51.796;5.808;2024-03-23T13:00:52;12.70;99.90
26803;DHT22;14378;51.796;5.808;2024-03-23T13:02:52;12.60;99.90
26803;DHT22;14378;51.796;5.808;2024-03-23T13:04:54;12.50;99.90
26803;DHT22;14378;51.796;5.808;2024-03-23T13:06:55;12.40;99.90
26803;DHT22;14378;51.796;5.808;2024-03-23T13:08:56;12.50;99.90
26803;DHT22;14378;51.796;5.808;2024-03-23T13:10:57;12.50;99.90
26803;DHT22;14378;51.796;5.808;2024-03-23T13:12:58;12.60;99.90
26803;DHT22;14378;51.796;5.808;2024-03-23T13:15:00;12.50;99.90
26803;DHT22;14378;51.796;5.808;2024-03-23T13:17:01;12.40;99.90
26803;DHT22;14378;51.796;5.808;2024-03-23T13:19:03;12.40;99.90
26803;DHT22;14378;51.796;5.808;2024-03-23T13:21:04;12.40;99.90
26803;DHT22;14378;51.796;5.808;2024-03-23T13:23:05;12.30;99.90
26803;DHT22;14378;51.796;5.808;2024-03-23T13:25:07;11.90;99.90
26803;DHT22;14378;51.796;5.808;2024-03-23T13:27:07;11.40;99.90
26803;DHT22;14378;51.796;5.808;2024-03-23T13:29:18;11.10;99.90
26803;DHT22;14378;51.796;5.808;2024-03-23T13:31:19;10.90;99.90
26803;DHT22;14378;51.796;5.808;2024-03-23T13:33:21;11.00;99.90
26803;DHT22;14378;51.796;5.808;2024-03-23T13:35:27;10.80;99.90
26803;DHT22;14378;51.796;5.808;2024-03-23T13:37:28;10.70;99.90
26803;DHT22;14378;51.796;5.808;2024-03-23T13:39:30;10.40;99.90
26803;DHT22;14378;51.796;5.808;2024-03-23T13:41:31;10.20;99.90
26803;DHT22;14378;51.796;5.808;2024-03-23T13:43:38;10.10;99.90
26803;DHT22;14378;51.796;5.808;2024-03-23T13:45:42;10.10;99.90
26803;DHT22;14378;51.796;5.808;2024-03-23T13:47:44;10.10;99.90
26803;DHT22;14378;51.796;5.808;2024-03-23T13:49:45;10.10;99.90
26803;DHT22;14378;51.796;5.808;2024-03-23T13:51:49;10.10;99.90
26803;DHT22;14378;51.796;5.808;2024-03-23T13:53:50;10.30;99.90
26803;DHT22;14378;51.796;5.808;2024-03-23T13:55:50;10.40;99.90
26803;DHT22;14378;51.796;5.808;2024-03-23T13:57:52;10.50;99.90
26803;DHT22;14378;51.796;5.808;2024-03-23T13:59:54;10.80;99.90
26803;DHT22;14378;51.796;5.808;2024-03-23T14:01:55;10.80;99.90
26803;DHT22;14378;51.796;5.808;2024-03-23T14:03:56;10.90;99.90